createdAt,value
2019-03-01T00:01:17.663Z,88.93
2019-03-01T00:03:42.095Z,92.17
2019-03-01T00:06:12.531Z,92.47
2019-03-01T00:09:05.473Z,91.27
2019-03-01T00:11:41.707Z,94.73
2019-03-01T00:14:27.189Z,89.17
2019-03-01T00:17:12.633Z,92.63
2019-03-01T00:19:55.252Z,90.63
2019-03-01T00:22:51.526Z,80.77
2019-03-01T00:25:24.688Z,90.70
2019-03-01T00:28:03.895Z,93.57
2019-03-01T00:30:34.107Z,101.57
2019-03-01T00:33:10.254Z,94.77
2019-03-01T00:35:37.735Z,98.17
2019-03-01T00:38:11.200Z,88.87
2019-03-01T00:40:50.408Z,88.57
2019-03-01T00:43:34.468Z,90.20
2019-03-01T00:45:58.885Z,88.43
2019-03-01T00:48:23.363Z,87.47
2019-03-01T00:50:47.887Z,93.83
2019-03-01T00:53:12.307Z,93.17
2019-03-01T00:55:36.731Z,90.20
2019-03-01T00:58:01.268Z,89.97
2019-03-01T01:00:34.856Z,86.30
2019-03-01T01:02:59.360Z,93.13
2019-03-01T01:05:24.030Z,101.30
2019-03-01T01:07:48.485Z,95.77
2019-03-01T01:10:12.873Z,105.07
2019-03-01T01:12:37.476Z,99.87
2019-03-01T01:15:01.901Z,102.00
2019-03-01T01:17:26.323Z,107.60
2019-03-01T01:19:50.806Z,95.73
2019-03-01T01:22:15.298Z,98.40
2019-03-01T01:24:39.718Z,94.13
2019-03-01T01:27:04.214Z,97.23
2019-03-01T01:29:28.634Z,92.90
2019-03-01T01:31:53.094Z,99.43
2019-03-01T01:34:17.519Z,99.00
2019-03-01T01:36:42.107Z,102.97
2019-03-01T01:39:07.737Z,107.10
2019-03-01T01:41:32.268Z,95.77
2019-03-01T01:43:56.807Z,94.63
2019-03-01T01:46:21.322Z,93.60
2019-03-01T01:48:45.808Z,91.20
2019-03-01T01:51:10.318Z,98.23
2019-03-01T01:53:34.756Z,100.27
2019-03-01T01:55:59.190Z,101.50
2019-03-01T01:58:23.628Z,89.57
2019-03-01T02:00:48.092Z,95.20
2019-03-01T02:03:12.609Z,96.30
2019-03-01T02:05:37.236Z,89.67
2019-03-01T02:08:01.770Z,99.47
2019-03-01T02:10:26.208Z,93.70
2019-03-01T02:12:50.661Z,94.47
2019-03-01T02:15:15.205Z,93.47
2019-03-01T02:17:39.733Z,90.97
2019-03-01T02:20:06.502Z,95.53
2019-03-01T02:22:30.963Z,97.40
2019-03-01T02:24:55.388Z,95.27
2019-03-01T02:27:27.720Z,96.83
2019-03-01T02:29:52.285Z,98.43
2019-03-01T02:32:25.807Z,100.93
2019-03-01T02:34:50.244Z,95.20
2019-03-01T02:37:14.696Z,93.23
2019-03-01T02:39:39.124Z,97.63
2019-03-01T02:42:03.580Z,94.93
2019-03-01T02:44:28.009Z,91.13
2019-03-01T02:46:52.460Z,90.80
2019-03-01T02:49:16.888Z,97.30
2019-03-01T02:51:41.342Z,95.83
2019-03-01T02:54:05.774Z,106.37
2019-03-01T02:56:30.206Z,98.80
2019-03-01T02:58:54.655Z,90.10
2019-03-01T03:01:19.081Z,91.63
2019-03-01T03:03:43.529Z,95.57
2019-03-01T03:06:21.722Z,89.80
2019-03-01T03:08:46.171Z,96.07
2019-03-01T03:11:10.614Z,91.20
2019-03-01T03:13:35.076Z,98.90
2019-03-01T03:15:59.777Z,92.63
2019-03-01T03:18:24.220Z,92.00
2019-03-01T03:20:48.647Z,94.63
2019-03-01T03:23:13.100Z,98.77
2019-03-01T03:25:37.594Z,95.90
2019-03-01T03:28:02.040Z,92.20
2019-03-01T03:30:26.609Z,99.83
2019-03-01T03:32:51.037Z,98.37
2019-03-01T03:35:15.528Z,97.60
2019-03-01T03:37:40.034Z,97.80
2019-03-01T03:40:07.462Z,98.43
2019-03-01T03:42:31.962Z,104.10
2019-03-01T03:44:56.451Z,107.33
2019-03-01T03:47:20.854Z,98.33
2019-03-01T03:49:45.293Z,102.47
2019-03-01T03:52:09.704Z,98.43
2019-03-01T03:54:40.694Z,101.13
2019-03-01T03:57:05.543Z,101.77
2019-03-01T03:59:29.995Z,102.50
2019-03-01T04:01:54.532Z,99.13
2019-03-01T04:04:19.058Z,108.43
2019-03-01T04:06:43.563Z,99.27
2019-03-01T04:09:08.332Z,102.93
2019-03-01T04:11:32.751Z,100.33
2019-03-01T04:13:57.170Z,104.10
2019-03-01T04:16:21.675Z,101.40
2019-03-01T04:18:46.108Z,108.63
2019-03-01T04:21:10.552Z,109.13
2019-03-01T04:23:34.973Z,110.87
2019-03-01T04:25:59.434Z,105.13
2019-03-01T04:28:23.849Z,114.70
2019-03-01T04:30:48.369Z,119.33
2019-03-01T04:33:12.885Z,115.40
2019-03-01T04:35:37.328Z,112.77
2019-03-01T04:38:01.834Z,116.80
2019-03-01T04:40:26.287Z,111.40
2019-03-01T04:42:50.710Z,118.30
2019-03-01T04:45:16.986Z,110.53
2019-03-01T04:47:41.551Z,104.20
2019-03-01T04:50:08.655Z,121.20
2019-03-01T04:52:34.622Z,103.00
2019-03-01T04:54:59.061Z,116.57
2019-03-01T04:57:23.560Z,127.17
2019-03-01T04:59:48.015Z,129.20
2019-03-01T05:02:12.465Z,115.27
2019-03-01T05:04:36.900Z,120.73
2019-03-01T05:07:02.116Z,112.33
2019-03-01T05:09:26.555Z,117.17
2019-03-01T05:11:50.967Z,110.27
2019-03-01T05:14:15.420Z,109.87
2019-03-01T05:16:39.905Z,106.23
2019-03-01T05:19:04.466Z,109.07
2019-03-01T05:21:28.922Z,104.43
2019-03-01T05:23:53.341Z,116.63
2019-03-01T05:26:17.794Z,113.20
2019-03-01T05:28:42.221Z,114.07
2019-03-01T05:31:06.676Z,132.37
2019-03-01T05:33:31.102Z,133.00
2019-03-01T05:35:55.760Z,107.57
2019-03-01T05:38:22.007Z,114.30
2019-03-01T05:40:46.329Z,103.90
2019-03-01T05:43:10.758Z,97.10
2019-03-01T05:45:35.187Z,105.77
2019-03-01T05:47:59.613Z,97.80
2019-03-01T05:50:24.162Z,92.13
2019-03-01T05:52:48.572Z,92.23
2019-03-01T05:55:13.744Z,89.90
2019-03-01T05:57:57.428Z,92.57
2019-03-01T06:00:21.855Z,91.10
2019-03-01T06:02:49.323Z,84.53
2019-03-01T06:05:14.883Z,87.40
2019-03-01T06:07:42.461Z,82.10
2019-03-01T06:10:34.871Z,82.50
2019-03-01T06:13:04.939Z,84.97
2019-03-01T06:15:32.399Z,99.70
2019-03-01T06:18:20.716Z,96.87
2019-03-01T06:21:00.291Z,99.57
2019-03-01T06:23:36.679Z,87.90
2019-03-01T06:26:28.111Z,93.23
2019-03-01T06:29:10.459Z,96.03
2019-03-01T06:31:40.880Z,112.80
2019-03-01T06:34:11.339Z,98.07
2019-03-01T06:36:47.197Z,93.47
2019-03-01T06:39:52.531Z,90.13
2019-03-01T06:42:38.324Z,83.83
2019-03-01T06:45:08.823Z,83.70
2019-03-01T06:47:50.015Z,82.07
2019-03-01T06:50:18.985Z,96.33
2019-03-01T06:52:43.475Z,115.93
2019-03-01T06:55:10.945Z,98.77
2019-03-01T06:57:35.361Z,100.10
2019-03-01T06:59:59.845Z,102.40
2019-03-01T07:02:25.925Z,92.53
2019-03-01T07:04:50.335Z,98.43
2019-03-01T07:07:14.763Z,94.83
2019-03-01T07:09:39.175Z,100.90
2019-03-01T07:12:03.603Z,100.07
2019-03-01T07:14:28.041Z,108.07
2019-03-01T07:16:52.472Z,111.97
2019-03-01T07:19:16.907Z,126.10
2019-03-01T07:21:41.369Z,134.57
2019-03-01T07:24:06.031Z,124.87
2019-03-01T07:26:30.549Z,116.30
2019-03-01T07:28:54.962Z,112.93
2019-03-01T07:31:19.405Z,117.57
2019-03-01T07:33:43.836Z,111.70
2019-03-01T07:36:08.274Z,132.83
2019-03-01T07:38:32.709Z,134.00
2019-03-01T07:40:57.190Z,125.20
2019-03-01T07:43:21.610Z,139.80
2019-03-01T07:45:46.049Z,128.67
2019-03-01T07:48:10.584Z,125.90
2019-03-01T07:50:35.021Z,135.67
2019-03-01T07:53:00.321Z,123.27
2019-03-01T07:55:28.500Z,110.60
2019-03-01T07:57:51.744Z,118.33
2019-03-01T08:00:17.130Z,120.13
2019-03-01T08:02:41.582Z,119.93
2019-03-01T08:05:09.544Z,119.43
2019-03-01T08:07:33.984Z,124.27
2019-03-01T08:09:58.402Z,111.33
2019-03-01T08:12:22.860Z,108.43
2019-03-01T08:14:47.275Z,114.23
2019-03-01T08:17:11.809Z,111.77
2019-03-01T08:19:36.237Z,112.83
2019-03-01T08:22:00.669Z,105.17
2019-03-01T08:24:25.106Z,106.97
2019-03-01T08:26:49.528Z,112.97
2019-03-01T08:29:13.984Z,123.60
2019-03-01T08:31:38.388Z,109.83
2019-03-01T08:34:02.834Z,122.43
2019-03-01T08:36:27.274Z,126.17
2019-03-01T08:38:51.737Z,123.47
2019-03-01T08:41:16.150Z,130.33
2019-03-01T08:43:40.705Z,132.10
2019-03-01T08:46:05.473Z,153.60
2019-03-01T08:48:33.666Z,134.77
2019-03-01T08:50:57.433Z,143.67
2019-03-01T08:53:21.953Z,126.13
2019-03-01T08:55:46.358Z,126.17
2019-03-01T08:58:10.869Z,155.17
2019-03-01T09:00:38.383Z,135.20
2019-03-01T09:03:05.856Z,130.73
2019-03-01T09:05:30.277Z,123.63
2019-03-01T09:07:54.691Z,124.30
2019-03-01T09:10:19.228Z,136.30
2019-03-01T09:12:43.796Z,114.70
2019-03-01T09:15:11.342Z,121.30
2019-03-01T09:17:35.752Z,129.50
2019-03-01T09:20:01.097Z,117.50
2019-03-01T09:22:28.027Z,131.20
2019-03-01T09:24:51.817Z,110.00
2019-03-01T09:27:16.238Z,113.53
2019-03-01T09:29:41.871Z,120.10
2019-03-01T09:32:07.560Z,129.57
2019-03-01T09:34:32.982Z,116.53
2019-03-01T09:36:57.590Z,107.73
2019-03-01T09:39:22.019Z,108.73
2019-03-01T09:41:46.622Z,96.17
2019-03-01T09:44:11.105Z,93.83
2019-03-01T09:46:35.619Z,82.53
2019-03-01T09:49:00.052Z,83.73
2019-03-01T09:51:24.633Z,77.23
2019-03-01T09:53:49.110Z,76.13
2019-03-01T09:56:13.894Z,80.23
2019-03-01T09:58:38.280Z,84.00
2019-03-01T10:01:14.760Z,85.20
2019-03-01T10:03:39.238Z,82.23
2019-03-01T10:06:03.754Z,81.33
2019-03-01T10:08:28.199Z,77.17
2019-03-01T10:10:52.635Z,83.63
2019-03-01T10:13:17.958Z,74.30
2019-03-01T10:15:42.535Z,74.53
2019-03-01T10:18:07.077Z,76.20
2019-03-01T10:20:31.553Z,64.77
2019-03-01T10:22:55.976Z,68.97
2019-03-01T10:25:21.322Z,66.30
2019-03-01T10:27:45.831Z,64.57
2019-03-01T10:30:18.376Z,67.53
2019-03-01T10:32:42.828Z,65.17
2019-03-01T10:35:09.562Z,64.23
2019-03-01T10:37:33.991Z,64.73
2019-03-01T10:39:58.395Z,67.00
2019-03-01T10:42:22.835Z,66.47
2019-03-01T10:44:47.243Z,72.33
2019-03-01T10:47:11.682Z,67.37
2019-03-01T10:49:36.098Z,66.90
2019-03-01T10:52:00.543Z,71.77
2019-03-01T10:54:24.954Z,68.27
2019-03-01T10:56:49.375Z,69.80
2019-03-01T10:59:13.780Z,70.03
2019-03-01T11:01:38.368Z,67.67
2019-03-01T11:04:02.766Z,64.97
2019-03-01T11:06:27.183Z,62.13
2019-03-01T11:08:51.680Z,59.70
2019-03-01T11:11:16.085Z,59.63
2019-03-01T11:13:40.565Z,53.80
2019-03-01T11:16:05.196Z,59.13
2019-03-01T11:18:29.628Z,53.97
2019-03-01T11:20:54.112Z,60.67
2019-03-01T11:23:18.561Z,57.13
2019-03-01T11:25:43.112Z,54.40
2019-03-01T11:28:07.555Z,51.97
2019-03-01T11:30:33.386Z,49.03
2019-03-01T11:32:57.824Z,47.33
2019-03-01T11:35:22.316Z,49.47
2019-03-01T11:37:46.883Z,51.17
2019-03-01T11:40:14.835Z,48.27
2019-03-01T11:42:39.273Z,53.47
2019-03-01T11:45:04.795Z,45.97
2019-03-01T11:47:29.227Z,50.43
2019-03-01T11:49:53.632Z,40.73
2019-03-01T11:52:18.043Z,37.70
2019-03-01T11:54:42.465Z,39.00
2019-03-01T11:57:06.869Z,41.37
2019-03-01T11:59:31.307Z,46.93
2019-03-01T12:01:55.721Z,40.93
2019-03-01T12:04:20.145Z,49.13
2019-03-01T12:06:44.556Z,37.57
2019-03-01T12:09:09.240Z,35.53
2019-03-01T12:11:33.639Z,37.37
2019-03-01T12:13:58.065Z,30.77
2019-03-01T12:16:22.473Z,32.37
2019-03-01T12:18:47.012Z,31.13
2019-03-01T12:21:11.414Z,27.40
2019-03-01T12:23:35.863Z,33.53
2019-03-01T12:26:00.280Z,32.27
2019-03-01T12:28:24.786Z,26.97
2019-03-01T12:30:49.277Z,26.20
2019-03-01T12:33:13.706Z,21.53
2019-03-01T12:35:38.150Z,22.57
2019-03-01T12:38:02.566Z,19.93
2019-03-01T12:40:28.050Z,19.73
2019-03-01T12:42:52.535Z,16.27
2019-03-01T12:45:17.057Z,18.20
2019-03-01T12:47:41.599Z,17.67
2019-03-01T12:50:09.095Z,14.90
2019-03-01T12:52:33.574Z,20.60
2019-03-01T12:54:57.993Z,25.57
2019-03-01T12:57:22.440Z,13.47
2019-03-01T12:59:46.992Z,13.80
2019-03-01T13:02:11.420Z,12.43
2019-03-01T13:04:35.819Z,11.53
2019-03-01T13:07:00.286Z,17.90
2019-03-01T13:09:26.505Z,8.80
2019-03-01T13:11:51.503Z,7.27
2019-03-01T13:14:16.472Z,7.00
2019-03-01T13:16:40.913Z,8.10
2019-03-01T13:19:05.424Z,8.67
2019-03-01T13:21:29.874Z,8.10
2019-03-01T13:23:54.345Z,7.97
2019-03-01T13:26:18.745Z,8.83
2019-03-01T13:28:43.898Z,6.20
2019-03-01T13:31:11.387Z,6.27
2019-03-01T13:33:37.481Z,4.37
2019-03-01T13:36:03.657Z,7.53
2019-03-01T13:38:30.383Z,4.83
2019-03-01T13:40:54.665Z,5.60
2019-03-01T13:43:19.095Z,4.73
2019-03-01T13:45:43.500Z,4.93
2019-03-01T13:48:07.941Z,4.03
2019-03-01T13:50:32.404Z,4.50
2019-03-01T13:52:56.837Z,5.40
2019-03-01T13:55:23.838Z,5.47
2019-03-01T13:57:51.104Z,3.80
2019-03-01T14:00:19.924Z,4.63
2019-03-01T14:02:46.842Z,6.03
2019-03-01T14:05:13.332Z,4.30
2019-03-01T14:07:39.355Z,4.73
2019-03-01T14:10:05.866Z,5.00
2019-03-01T14:12:30.710Z,5.17
2019-03-01T14:14:55.317Z,11.63
2019-03-01T14:17:21.110Z,15.60
2019-03-01T14:19:46.080Z,9.77
2019-03-01T14:22:13.830Z,6.13
2019-03-01T14:24:38.153Z,5.00
2019-03-01T14:27:04.261Z,5.77
2019-03-01T14:29:28.903Z,7.40
2019-03-01T14:31:53.368Z,4.20
2019-03-01T14:34:17.894Z,6.13
2019-03-01T14:36:44.019Z,5.70
2019-03-01T14:39:11.486Z,5.13
2019-03-01T14:41:35.887Z,4.10
2019-03-01T14:44:00.331Z,3.23
2019-03-01T14:46:24.838Z,4.63
2019-03-01T14:48:49.393Z,5.03
2019-03-01T14:51:13.856Z,7.20
2019-03-01T14:53:38.275Z,6.90
2019-03-01T14:56:12.006Z,4.90
2019-03-01T14:58:48.394Z,4.33
2019-03-01T15:01:27.943Z,4.80
2019-03-01T15:03:53.560Z,8.00
2019-03-01T15:06:20.080Z,6.60
2019-03-01T15:08:45.149Z,7.03
2019-03-01T15:11:12.070Z,5.20
2019-03-01T15:13:36.612Z,3.47
2019-03-01T15:16:04.843Z,6.07
2019-03-01T15:18:28.972Z,3.53
2019-03-01T15:20:56.242Z,7.70
2019-03-01T15:23:20.828Z,6.37
2019-03-01T15:25:48.516Z,4.63
2019-03-01T15:28:13.236Z,3.53
2019-03-01T15:30:37.950Z,6.70
2019-03-01T15:33:02.342Z,9.77
2019-03-01T15:35:28.703Z,7.53
2019-03-01T15:37:52.880Z,5.30
2019-03-01T15:40:17.395Z,8.03
2019-03-01T15:42:41.828Z,8.63
2019-03-01T15:45:14.300Z,7.67
2019-03-01T15:47:38.811Z,6.50
2019-03-01T15:50:03.452Z,10.20
2019-03-01T15:52:27.897Z,20.17
2019-03-01T15:54:52.315Z,12.90
2019-03-01T15:57:18.820Z,6.20
2019-03-01T15:59:44.361Z,7.97
2019-03-01T16:02:09.203Z,5.03
2019-03-01T16:04:34.434Z,15.63
2019-03-01T16:06:58.903Z,8.80
2019-03-01T16:09:25.310Z,5.40
2019-03-01T16:11:49.415Z,6.00
2019-03-01T16:14:13.893Z,7.47
2019-03-01T16:16:38.290Z,5.00
2019-03-01T16:19:02.752Z,8.10
2019-03-01T16:21:27.220Z,7.50
2019-03-01T16:23:51.664Z,16.33
2019-03-01T16:26:16.132Z,7.00
2019-03-01T16:28:40.554Z,4.97
2019-03-01T16:31:05.941Z,5.57
2019-03-01T16:33:30.370Z,6.50
2019-03-01T16:35:54.795Z,8.70
2019-03-01T16:38:19.283Z,7.63
2019-03-01T16:40:43.763Z,10.07
2019-03-01T16:43:08.154Z,6.90
2019-03-01T16:45:32.612Z,4.97
2019-03-01T16:47:57.021Z,6.83
2019-03-01T16:50:21.619Z,8.60
2019-03-01T16:52:46.095Z,4.27
2019-03-01T16:55:16.157Z,7.27
2019-03-01T16:57:40.574Z,8.77
2019-03-01T17:00:10.927Z,12.13
2019-03-01T17:02:38.703Z,10.77
2019-03-01T17:05:03.688Z,11.77
2019-03-01T17:07:28.746Z,5.70
2019-03-01T17:09:54.984Z,5.17
2019-03-01T17:12:19.473Z,5.83
2019-03-01T17:14:43.984Z,7.03
2019-03-01T17:17:08.395Z,8.07
2019-03-01T17:19:32.895Z,10.77
2019-03-01T17:21:57.459Z,8.77
2019-03-01T17:24:21.901Z,7.13
2019-03-01T17:26:46.367Z,8.50
2019-03-01T17:29:10.882Z,10.63
2019-03-01T17:31:35.550Z,9.80
2019-03-01T17:34:00.046Z,6.87
2019-03-01T17:36:24.570Z,10.30
2019-03-01T17:38:49.006Z,11.37
2019-03-01T17:41:13.705Z,9.23
2019-03-01T17:43:38.126Z,8.57
2019-03-01T17:46:02.562Z,10.83
2019-03-01T17:48:27.050Z,8.37
2019-03-01T17:50:51.551Z,9.27
2019-03-01T17:53:16.000Z,12.27
2019-03-01T17:55:40.580Z,7.53
2019-03-01T17:58:05.426Z,9.03
2019-03-01T18:00:39.924Z,8.30
2019-03-01T18:03:04.774Z,8.80
2019-03-01T18:05:29.349Z,8.97
2019-03-01T18:07:53.840Z,7.03
2019-03-01T18:10:18.313Z,8.37
2019-03-01T18:12:42.874Z,10.03
2019-03-01T18:15:13.414Z,6.20
2019-03-01T18:17:38.036Z,9.43
2019-03-01T18:20:16.571Z,12.00
2019-03-01T18:33:39.551Z,9.17
2019-03-01T18:35:08.095Z,9.43
2019-03-01T18:40:34.194Z,6.83
2019-03-01T18:42:58.930Z,10.07
2019-03-01T18:45:27.290Z,11.83
2019-03-01T18:47:51.848Z,12.50
2019-03-01T18:50:27.642Z,10.50
2019-03-01T18:52:53.381Z,8.70
2019-03-01T18:55:18.503Z,12.03
2019-03-01T18:57:43.075Z,7.77
2019-03-01T19:00:16.311Z,9.87
2019-03-01T19:02:40.770Z,7.73
2019-03-01T19:05:06.140Z,6.90
2019-03-01T19:07:30.527Z,8.73
2019-03-01T19:09:55.011Z,8.53
2019-03-01T19:12:19.603Z,12.83
2019-03-01T19:14:44.118Z,8.60
2019-03-01T19:17:08.611Z,7.03
2019-03-01T19:19:33.238Z,7.57
2019-03-01T19:21:57.649Z,13.67
2019-03-01T19:24:22.103Z,11.53
2019-03-01T19:26:46.666Z,7.70
2019-03-01T19:29:11.175Z,9.00
2019-03-01T19:31:35.604Z,6.60
2019-03-01T19:34:00.053Z,9.40
2019-03-01T19:36:24.564Z,10.07
2019-03-01T19:38:49.030Z,9.40
2019-03-01T19:41:13.523Z,8.77
2019-03-01T19:43:37.933Z,13.23
2019-03-01T19:46:02.334Z,10.40
2019-03-01T19:48:26.780Z,11.57
2019-03-01T19:50:51.257Z,12.40
2019-03-01T19:53:15.676Z,12.10
2019-03-01T19:55:40.114Z,11.50
2019-03-01T19:58:04.609Z,10.57
2019-03-01T20:00:33.764Z,9.50
2019-03-01T20:02:58.252Z,10.23
2019-03-01T20:05:31.674Z,12.10
2019-03-01T20:07:56.742Z,8.13
2019-03-01T20:10:21.318Z,19.17
2019-03-01T20:12:45.958Z,14.60
2019-03-01T20:15:15.940Z,11.47
2019-03-01T20:17:44.412Z,9.93
2019-03-01T20:20:12.421Z,13.83
2019-03-01T20:22:36.820Z,16.47
2019-03-01T20:25:01.270Z,12.63
2019-03-01T20:27:25.739Z,9.23
2019-03-01T20:29:52.480Z,14.80
2019-03-01T20:32:16.598Z,10.77
2019-03-01T20:34:41.096Z,8.37
2019-03-01T20:37:06.170Z,13.60
2019-03-01T20:39:30.593Z,11.13
2019-03-01T20:41:55.036Z,12.53
2019-03-01T20:44:19.889Z,11.67
2019-03-01T20:46:45.014Z,10.87
2019-03-01T20:49:09.646Z,10.20
2019-03-01T20:51:34.112Z,12.83
2019-03-01T20:53:58.529Z,12.60
2019-03-01T20:56:23.033Z,11.33
2019-03-01T20:58:47.444Z,13.33
2019-03-01T21:01:11.912Z,8.00
2019-03-01T21:03:36.945Z,14.87
2019-03-01T21:06:04.306Z,13.33
2019-03-01T21:08:29.114Z,10.13
2019-03-01T21:10:53.885Z,11.03
2019-03-01T21:13:18.322Z,12.83
2019-03-01T21:15:42.824Z,8.53
2019-03-01T21:18:07.441Z,14.23
2019-03-01T21:20:31.870Z,14.80
2019-03-01T21:22:56.343Z,8.93
2019-03-01T21:25:25.059Z,14.03
2019-03-01T21:27:49.823Z,14.87
2019-03-01T21:30:17.313Z,16.03
2019-03-01T21:32:41.793Z,17.60
2019-03-01T21:35:06.588Z,15.33
2019-03-01T21:37:31.036Z,14.73
2019-03-01T21:39:58.877Z,9.83
2019-03-01T21:42:21.675Z,15.33
2019-03-01T21:44:46.740Z,14.27
2019-03-01T21:47:13.614Z,12.63
2019-03-01T21:49:37.561Z,11.90
2019-03-01T21:52:02.047Z,12.37
2019-03-01T21:54:26.548Z,13.03
2019-03-01T21:56:56.008Z,10.77
2019-03-01T21:59:18.322Z,7.10
2019-03-01T22:01:43.046Z,12.93
2019-03-01T22:04:07.472Z,12.10
2019-03-01T22:06:32.152Z,10.43
2019-03-01T22:08:56.651Z,13.07
2019-03-01T22:11:21.074Z,11.60
2019-03-01T22:13:45.517Z,11.03
2019-03-01T22:16:09.895Z,16.67
2019-03-01T22:18:36.295Z,8.97
2019-03-01T22:21:00.450Z,7.73
2019-03-01T22:23:26.427Z,12.73
2019-03-01T22:25:50.883Z,11.13
2019-03-01T22:28:15.309Z,12.77
2019-03-01T22:30:39.756Z,13.87
2019-03-01T22:33:04.168Z,10.93
2019-03-01T22:35:28.593Z,16.70
2019-03-01T22:37:53.682Z,10.70
2019-03-01T22:40:18.096Z,12.13
2019-03-01T22:42:45.912Z,10.57
2019-03-01T22:45:14.594Z,11.43
2019-03-01T22:47:39.291Z,16.43
2019-03-01T22:50:06.996Z,11.40
2019-03-01T22:52:31.692Z,11.77
2019-03-01T22:54:57.745Z,13.13
2019-03-01T22:57:22.693Z,11.50
2019-03-01T22:59:48.617Z,15.50
2019-03-01T23:02:14.471Z,15.63
2019-03-01T23:04:38.896Z,13.17
2019-03-01T23:07:03.349Z,13.97
2019-03-01T23:09:27.998Z,11.43
2019-03-01T23:11:52.480Z,13.63
2019-03-01T23:14:16.896Z,15.93
2019-03-01T23:16:41.422Z,11.97
2019-03-01T23:19:05.983Z,12.00
2019-03-01T23:21:32.604Z,11.20
2019-03-01T23:23:59.625Z,13.70
2019-03-01T23:26:22.661Z,12.47
2019-03-01T23:28:47.098Z,11.43
2019-03-01T23:31:11.530Z,14.97
2019-03-01T23:33:36.046Z,12.73
2019-03-01T23:36:00.457Z,13.13
2019-03-01T23:38:25.030Z,12.77
2019-03-01T23:40:49.439Z,17.97
2019-03-01T23:43:13.860Z,14.93
2019-03-01T23:45:38.428Z,15.37
2019-03-01T23:48:02.869Z,16.00
2019-03-01T23:50:27.414Z,11.90
2019-03-01T23:52:54.772Z,18.20
2019-03-01T23:55:19.059Z,15.50
2019-03-01T23:57:44.231Z,13.67
